Time;durP1;ratioP1;P1;durP2;ratioP2;P2;SDS_P1;SDS_P2;PMS_P1;PMS_P2;Temp;Humidity;BMP_temperature;BMP_pressure;BME280_temperature;BME280_humidity;BME280_pressure;Samples;Min_cycle;Max_cycle;Signal;HPM_P1;HPM_P2
2023/11/22 01:47:51;;;;;;;23.30;12.90;;;;;;;8.34;60.86;100878.06;106204;1257;60530;-83
2023/11/22 01:50:34;;;;;;;25.60;11.70;;;;;;;8.20;61.69;100876.68;106038;1256;73816;-83
2023/11/22 01:53:19;;;;;;;21.50;11.00;;;;;;;8.17;61.92;100879.86;106201;1258;67269;-86
2023/11/22 01:55:59;;;;;;;21.10;10.70;;;;;;;8.17;61.93;100872.24;106259;1256;71357;-84
2023/11/22 01:58:39;;;;;;;19.90;10.10;;;;;;;8.25;61.25;100866.72;106010;1263;60439;-83
2023/11/22 02:01:19;;;;;;;24.30;11.20;;;;;;;8.25;61.24;100876.90;106146;1256;60717;-83
2023/11/22 02:03:58;;;;;;;18.60;9.70;;;;;;;8.26;61.34;100878.92;106083;1257;72934;-83
2023/11/22 02:06:39;;;;;;;18.80;9.10;;;;;;;8.26;61.24;100880.90;106032;1262;68364;-83
2023/11/22 02:09:19;;;;;;;20.40;9.40;;;;;;;8.21;61.17;100877.63;106034;1262;71450;-85
2023/11/22 02:11:59;;;;;;;23.90;9.30;;;;;;;8.32;60.71;100880.64;106185;1258;60824;-84
2023/11/22 02:14:40;;;;;;;18.90;9.70;;;;;;;8.34;60.56;100873.69;106526;1260;60517;-85
2023/11/22 02:17:22;;;;;;;20.60;10.10;;;;;;;8.04;61.93;100877.55;106011;1257;73965;-85
2023/11/22 02:20:06;;;;;;;22.70;11.00;;;;;;;8.10;61.92;100879.44;106209;1259;66271;-83
2023/11/22 02:22:50;;;;;;;23.40;11.30;;;;;;;8.09;62.14;100872.23;106096;1262;71501;-84
2023/11/22 02:25:30;;;;;;;21.40;10.70;;;;;;;8.08;62.35;100862.11;106630;1257;61336;-85
2023/11/22 02:28:10;;;;;;;17.40;9.60;;;;;;;8.09;62.50;100861.84;106017;1256;61335;-85
2023/11/22 02:30:50;;;;;;;19.30;9.00;;;;;;;8.13;62.25;100865.21;106075;1256;74617;-83
2023/11/22 02:33:30;;;;;;;18.80;8.90;;;;;;;7.99;63.12;100874.14;106061;1261;68415;-84
2023/11/22 02:36:13;;;;;;;19.70;9.30;;;;;;;8.04;62.86;100879.09;106547;1257;72678;-82
2023/11/22 02:38:54;;;;;;;16.60;9.00;;;;;;;8.12;62.70;100883.02;105977;1262;61313;-84
2023/11/22 02:41:34;;;;;;;17.00;9.10;;;;;;;8.11;62.34;100881.63;106195;1257;61377;-85
2023/11/22 02:44:17;;;;;;;17.70;9.40;;;;;;;7.99;63.33;100888.76;106163;1256;74689;-84
2023/11/22 02:46:57;;;;;;;18.40;8.60;;;;;;;8.07;63.36;100887.45;106521;1257;67641;-84
2023/11/22 02:49:39;;;;;;;17.00;8.70;;;;;;;8.14;62.87;100894.09;106038;1260;72761;-84
2023/11/22 02:52:18;;;;;;;19.20;9.50;;;;;;;8.10;62.94;100895.83;105932;1262;61429;-83
2023/11/22 02:54:58;;;;;;;16.90;9.10;;;;;;;7.98;63.80;100890.48;106046;1256;61237;-83
2023/11/22 02:57:39;;;;;;;19.10;9.70;;;;;;;8.08;63.72;100890.25;106409;1256;73682;-84
2023/11/22 03:00:21;;;;;;;18.60;9.00;;;;;;;8.09;63.54;100884.92;106119;1260;67134;-85
2023/11/22 03:03:01;;;;;;;17.80;7.90;;;;;;;7.96;64.04;100886.56;105952;1260;72757;-85
2023/11/22 03:05:41;;;;;;;17.70;8.70;;;;;;;7.69;65.45;100886.92;106087;1257;61273;-83
2023/11/22 03:08:21;;;;;;;18.10;8.80;;;;;;;7.41;67.31;100889.27;106080;1258;61331;-84
2023/11/22 03:11:02;;;;;;;19.10;9.50;;;;;;;7.49;67.80;100890.98;106071;1258;73376;-83
2023/11/22 03:13:43;;;;;;;15.50;8.30;;;;;;;7.63;66.92;100880.21;106154;1258;68785;-83
2023/11/22 03:16:24;;;;;;;16.20;8.40;;;;;;;7.57;66.96;100875.48;105954;1258;72745;-84
2023/11/22 03:19:04;;;;;;;15.70;7.70;;;;;;;7.54;67.39;100873.00;106156;1259;61291;-83
2023/11/22 03:21:44;;;;;;;19.40;9.20;;;;;;;7.55;67.51;100872.30;105975;1257;61115;-85
2023/11/22 03:24:23;;;;;;;17.80;8.00;;;;;;;7.65;67.18;100872.79;106213;1257;75061;-83
2023/11/22 03:27:04;;;;;;;18.60;8.60;;;;;;;7.80;66.60;100865.92;106198;1259;67454;-83
2023/11/22 03:29:44;;;;;;;16.20;8.50;;;;;;;7.85;65.99;100863.93;106016;1258;71318;-84
2023/11/22 03:32:30;;;;;;;18.60;8.70;;;;;;;7.84;65.83;100866.30;106069;1261;61343;-83
2023/11/22 03:35:10;;;;;;;18.30;8.50;;;;;;;7.81;65.92;100867.61;106156;1261;61362;-84
2023/11/22 03:37:50;;;;;;;20.30;9.40;;;;;;;7.60;66.67;100874.22;106613;1257;73446;-85
2023/11/22 03:40:30;;;;;;;16.50;8.00;;;;;;;7.66;66.98;100878.34;106054;1262;67173;-84
2023/11/22 03:43:10;;;;;;;18.10;8.70;;;;;;;7.61;67.34;100881.26;105985;1261;71468;-83
2023/11/22 03:45:50;;;;;;;19.40;9.90;;;;;;;7.78;67.05;100882.92;106082;1261;61342;-83
2023/11/22 03:48:29;;;;;;;22.80;10.30;;;;;;;7.86;66.61;100882.11;106662;1258;61259;-83
2023/11/22 03:51:12;;;;;;;19.70;10.30;;;;;;;7.88;66.41;100883.45;106086;1261;74751;-84
2023/11/22 03:53:53;;;;;;;17.60;9.30;;;;;;;7.97;65.87;100885.25;106003;1262;67463;-83
2023/11/22 03:56:34;;;;;;;20.90;10.00;;;;;;;8.03;65.38;100883.92;106038;1259;72710;-83
2023/11/22 03:59:14;;;;;;;16.80;8.40;;;;;;;8.15;65.06;100880.33;106310;1257;61154;-83
2023/11/22 04:01:54;;;;;;;20.20;10.20;;;;;;;8.16;64.94;100887.73;106201;1259;61149;-83
2023/11/22 04:04:34;;;;;;;21.00;10.20;;;;;;;8.33;63.96;100895.14;106107;1259;73567;-83
2023/11/22 04:07:14;;;;;;;22.00;10.10;;;;;;;8.33;63.64;100897.05;106128;1260;66582;-84
2023/11/22 04:09:55;;;;;;;21.10;10.20;;;;;;;8.41;63.31;100896.08;106310;1260;71416;-83
2023/11/22 04:12:36;;;;;;;20.00;10.10;;;;;;;8.47;62.78;100898.29;105986;1261;61280;-85
2023/11/22 04:15:15;;;;;;;19.40;9.60;;;;;;;8.46;62.98;100892.27;106041;1260;61254;-82
2023/11/22 04:17:55;;;;;;;21.20;10.00;;;;;;;8.57;62.32;100892.52;106463;1256;73453;-83
2023/11/22 04:20:36;;;;;;;21.20;10.30;;;;;;;8.58;62.21;100887.73;106034;1258;68346;-84
2023/11/22 04:23:16;;;;;;;23.10;11.50;;;;;;;8.52;62.25;100887.83;105854;1262;72722;-83
2023/11/22 04:25:58;;;;;;;23.10;10.80;;;;;;;8.56;62.14;100888.36;106113;1258;61385;-85
2023/11/22 04:28:37;;;;;;;18.40;9.90;;;;;;;8.29;63.46;100886.27;106107;1258;61429;-84
2023/11/22 04:31:17;;;;;;;16.20;8.80;;;;;;;8.38;63.18;100886.61;106028;1261;73406;-83
2023/11/22 04:34:00;;;;;;;21.20;10.50;;;;;;;8.39;62.83;100895.50;106055;1258;67361;-83
2023/11/22 04:36:40;;;;;;;25.30;10.70;;;;;;;8.43;62.71;100899.97;106037;1258;73262;-86
2023/11/22 04:39:20;;;;;;;21.00;10.80;;;;;;;8.50;62.30;100899.58;106051;1261;61248;-83
2023/11/22 04:42:00;;;;;;;24.70;12.60;;;;;;;8.49;62.15;100903.48;105987;1261;61485;-85
2023/11/22 04:44:40;;;;;;;32.10;14.10;;;;;;;8.47;62.26;100907.98;106009;1258;74666;-85
2023/11/22 04:47:21;;;;;;;34.10;14.60;;;;;;;8.42;62.40;100914.83;105864;1257;67191;-83
2023/11/22 04:50:02;;;;;;;35.70;16.30;;;;;;;8.37;62.59;100922.55;106563;1258;72677;-83
2023/11/22 04:52:42;;;;;;;39.60;18.20;;;;;;;8.32;63.01;100923.77;106252;1257;61368;-84
2023/11/22 04:55:24;;;;;;;35.50;15.90;;;;;;;8.30;63.15;100919.61;105954;1263;61394;-85
2023/11/22 04:58:04;;;;;;;37.60;18.80;;;;;;;8.28;63.12;100921.92;105986;1263;75044;-83
2023/11/22 05:00:45;;;;;;;36.80;15.10;;;;;;;8.22;63.46;100923.65;106141;1258;68422;-85
2023/11/22 05:03:25;;;;;;;38.50;17.70;;;;;;;8.06;63.87;100923.22;106069;1261;72687;-85
2023/11/22 05:06:05;;;;;;;37.80;18.10;;;;;;;7.99;64.45;100924.86;105836;1262;61161;-83
2023/11/22 05:08:45;;;;;;;39.00;16.10;;;;;;;8.01;64.14;100925.27;105874;1261;61130;-84
2023/11/22 05:11:25;;;;;;;38.70;16.20;;;;;;;8.05;63.99;100925.98;105998;1263;74689;-83
2023/11/22 05:14:05;;;;;;;40.20;16.70;;;;;;;8.08;63.94;100926.77;106026;1260;68696;-84
2023/11/22 05:16:44;;;;;;;39.80;17.70;;;;;;;8.06;63.83;100928.88;105960;1257;70897;-83
2023/11/22 05:19:25;;;;;;;38.10;16.20;;;;;;;8.01;64.01;100931.15;105967;1257;61303;-83
2023/11/22 05:22:05;;;;;;;40.40;16.40;;;;;;;8.09;63.68;100937.30;106330;1257;61456;-83
2023/11/22 05:24:45;;;;;;;35.60;15.50;;;;;;;8.05;63.86;100952.27;106066;1261;73701;-84
2023/11/22 05:27:25;;;;;;;33.20;14.40;;;;;;;8.05;63.79;100953.52;105990;1262;68665;-83
2023/11/22 05:30:05;;;;;;;41.10;16.50;;;;;;;8.06;63.63;100950.10;105915;1263;72690;-83
2023/11/22 05:32:45;;;;;;;36.50;15.50;;;;;;;8.03;63.84;100948.27;106592;1257;61368;-85
2023/11/22 05:35:25;;;;;;;32.20;13.90;;;;;;;7.99;64.17;100950.60;106054;1260;61244;-83
2023/11/22 05:38:05;;;;;;;32.70;13.60;;;;;;;7.89;64.52;100951.98;106238;1258;74806;-85
2023/11/22 05:40:45;;;;;;;30.40;13.80;;;;;;;7.95;64.38;100948.63;106034;1261;67114;-85
2023/11/22 05:43:26;;;;;;;29.20;13.90;;;;;;;7.99;64.40;100953.76;106425;1257;72869;-86
2023/11/22 05:46:07;;;;;;;28.70;13.60;;;;;;;8.03;64.12;100951.96;106012;1260;61277;-84
2023/11/22 05:48:47;;;;;;;30.50;13.90;;;;;;;8.04;63.92;100954.36;106130;1257;61248;-84
2023/11/22 05:51:27;;;;;;;31.60;13.90;;;;;;;8.00;64.08;100956.64;105923;1261;74727;-83
2023/11/22 05:54:07;;;;;;;30.00;14.30;;;;;;;7.99;63.95;100954.30;106330;1257;68376;-85
2023/11/22 05:56:47;;;;;;;32.20;15.30;;;;;;;8.05;63.57;100965.01;106282;1261;72998;-84
2023/11/22 05:59:27;;;;;;;32.10;14.40;;;;;;;8.03;63.70;100969.82;105951;1256;61427;-83
2023/11/22 06:02:08;;;;;;;33.50;14.50;;;;;;;8.23;63.04;100974.51;106032;1263;61421;-83
2023/11/22 06:04:48;;;;;;;28.10;14.00;;;;;;;8.30;62.77;100975.05;106016;1258;74598;-83
2023/11/22 06:07:29;;;;;;;31.80;14.70;;;;;;;8.34;62.57;100975.27;106531;1258;68703;-84
2023/11/22 06:10:03;;;;;;;32.90;13.90;;;;;;;8.23;63.11;100979.19;106125;1257;72679;-83
2023/11/22 06:12:37;;;;;;;32.10;14.10;;;;;;;8.17;63.41;100982.61;106097;1260;61264;-85
2023/11/22 06:15:12;;;;;;;34.80;15.20;;;;;;;8.22;63.29;100982.83;106384;1257;59981;-84
2023/11/22 06:17:46;;;;;;;42.50;16.40;;;;;;;8.46;61.99;100980.36;105989;1260;73377;-85
2023/11/22 06:20:21;;;;;;;32.40;16.00;;;;;;;8.26;62.53;100978.58;106050;1258;68658;-85
2023/11/22 06:23:01;;;;;;;50.90;18.80;;;;;;;8.22;62.76;100984.07;106045;1257;71936;-86
2023/11/22 06:25:39;;;;;;;47.90;21.40;;;;;;;8.19;63.10;100991.67;106196;1259;61366;-85
2023/11/22 06:28:19;;;;;;;53.00;20.80;;;;;;;8.17;63.47;100991.86;106249;1258;61122;-83
2023/11/22 06:30:47;;;;;;;45.00;18.80;;;;;;;8.15;63.70;100996.46;106110;1257;74752;-83
2023/11/22 06:33:21;;;;;;;88.50;30.80;;;;;;;8.15;63.84;100996.48;105985;1257;68522;-82
2023/11/22 06:36:01;;;;;;;28.00;14.50;;;;;;;8.26;63.45;100993.05;105732;1264;71439;-83
2023/11/22 06:38:41;;;;;;;28.10;14.20;;;;;;;8.30;63.26;100992.36;106030;1261;62348;-84
2023/11/22 06:41:09;;;;;;;29.90;14.30;;;;;;;8.36;62.53;100993.45;106522;1257;61241;-83
2023/11/22 06:43:50;;;;;;;29.10;13.90;;;;;;;8.35;62.66;100994.61;105995;1263;73479;-84
2023/11/22 06:46:29;;;;;;;29.30;12.90;;;;;;;8.35;62.63;101001.32;106085;1258;67179;-85
2023/11/22 06:49:04;;;;;;;25.10;12.40;;;;;;;8.40;62.35;101011.13;106292;1257;72928;-84
2023/11/22 12:30:41;;;;;;;29.70;14.60;;;;;;;8.82;62.20;101077.67;106470;1256;73434;-85
2023/11/22 12:33:26;;;;;;;26.90;13.50;;;;;;;8.82;61.83;101078.48;106298;1258;70812;-86
2023/11/22 12:36:06;;;;;;;21.00;11.10;;;;;;;8.89;61.53;101083.74;106254;1257;74665;-87
2023/11/22 12:38:49;;;;;;;21.70;11.70;;;;;;;8.91;61.31;101087.97;106442;1256;61135;-87
2023/11/22 12:41:29;;;;;;;21.60;10.30;;;;;;;8.91;61.30;101086.94;106585;1256;61321;-88
2023/11/22 12:44:12;;;;;;;19.00;10.10;;;;;;;8.96;61.36;101090.38;106119;1255;75791;-84
2023/11/22 12:46:59;;;;;;;19.90;11.60;;;;;;;8.90;61.56;101094.83;106148;1257;69128;-87
2023/11/22 12:49:39;;;;;;;20.60;10.70;;;;;;;8.78;61.94;101097.06;106134;1256;75289;-85
2023/11/22 12:52:19;;;;;;;21.80;10.60;;;;;;;8.75;61.92;101099.04;105973;1256;61234;-85
2023/11/22 12:54:58;;;;;;;20.80;11.50;;;;;;;8.62;62.24;101099.67;106224;1255;61212;-85
2023/11/22 12:57:35;;;;;;;24.00;11.10;;;;;;;8.51;62.84;101096.08;106393;1260;76684;-85
2023/11/22 13:00:17;;;;;;;19.50;10.50;;;;;;;8.50;63.00;101095.47;105992;1256;69982;-86
2023/11/22 13:02:50;;;;;;;21.10;10.30;;;;;;;8.52;62.65;101098.60;106180;1256;73580;-86
2023/11/22 13:05:43;;;;;;;17.70;9.90;;;;;;;8.48;62.66;101104.73;106180;1256;61151;-86
2023/11/22 13:08:17;;;;;;;19.00;9.80;;;;;;;8.34;62.78;101111.81;105982;1256;61807;-87
2023/11/22 13:10:53;;;;;;;24.20;11.30;;;;;;;8.35;62.72;101118.08;106208;1260;73739;-87
2023/11/22 13:13:30;;;;;;;24.60;11.50;;;;;;;8.31;63.43;101124.83;106569;1254;70416;-87
2023/11/22 13:15:59;;;;;;;21.70;11.60;;;;;;;8.31;63.69;101120.48;106117;1256;74847;-86
2023/11/22 13:18:34;;;;;;;21.30;9.60;;;;;;;8.29;63.91;101120.38;106049;1256;61403;-86
2023/11/22 13:21:07;;;;;;;21.80;10.00;;;;;;;8.33;63.53;101115.86;106119;1258;61221;-86
2023/11/22 13:23:41;;;;;;;19.00;9.90;;;;;;;8.38;63.23;101118.10;106050;1256;76677;-86
2023/11/22 13:26:12;;;;;;;19.70;9.80;;;;;;;8.37;63.04;101122.59;106448;1256;67194;-86
2023/11/22 13:28:46;;;;;;;19.60;10.50;;;;;;;8.38;63.00;101125.66;106111;1255;73709;-86
2023/11/22 13:31:21;;;;;;;19.30;9.70;;;;;;;8.33;63.17;101126.05;106223;1260;61346;-86
2023/11/22 13:33:55;;;;;;;21.30;9.70;;;;;;;8.24;63.64;101129.29;106076;1254;61476;-87
2023/11/22 13:36:23;;;;;;;18.00;10.30;;;;;;;8.28;63.61;101128.96;106495;1254;75788;-86
2023/11/22 13:38:58;;;;;;;21.80;12.10;;;;;;;8.30;63.63;101128.63;106204;1254;70010;-86
2023/11/22 13:41:32;;;;;;;23.10;12.00;;;;;;;8.36;63.10;101137.70;106061;1257;72432;-86
2023/11/22 13:44:06;;;;;;;26.50;12.00;;;;;;;8.30;63.43;101139.67;106053;1254;62576;-87
2023/11/22 13:46:40;;;;;;;20.60;10.90;;;;;;;8.30;63.26;101139.08;106572;1254;61289;-86
2023/11/22 13:49:14;;;;;;;16.70;9.40;;;;;;;8.30;63.04;101143.17;106268;1254;74638;-85
2023/11/22 13:51:48;;;;;;;17.60;9.70;;;;;;;8.30;63.12;101144.04;106048;1257;67269;-84
2023/11/22 13:54:22;;;;;;;15.40;8.60;;;;;;;8.34;63.00;101149.39;106232;1254;74924;-84
2023/11/22 13:56:56;;;;;;;17.10;9.50;;;;;;;8.24;63.18;101150.52;106399;1256;61147;-84
2023/11/22 13:59:29;;;;;;;33.30;15.90;;;;;;;7.94;65.07;101153.65;106267;1256;61327;-84
2023/11/22 14:02:05;;;;;;;29.00;13.90;;;;;;;7.91;65.45;101154.35;106048;1259;76599;-84
2023/11/22 14:04:39;;;;;;;18.50;9.80;;;;;;;8.04;65.10;101157.15;106253;1259;69878;-84
2023/11/22 14:07:13;;;;;;;15.90;8.40;;;;;;;8.09;65.03;101164.20;106566;1254;74805;-86
2023/11/22 14:09:50;;;;;;;16.70;8.70;;;;;;;8.02;65.18;101159.01;106164;1254;62932;-86
2023/11/22 14:12:24;;;;;;;20.60;10.60;;;;;;;7.88;66.37;101161.91;106218;1259;62017;-85
2023/11/22 14:14:58;;;;;;;22.80;11.10;;;;;;;7.68;67.18;101166.61;106203;1254;75103;-86
2023/11/22 14:17:39;;;;;;;29.20;14.40;;;;;;;7.54;68.19;101169.55;106270;1256;70582;-86
2023/11/22 14:20:13;;;;;;;30.80;14.20;;;;;;;7.67;67.38;101170.08;106476;1256;73822;-87
2023/11/22 14:22:50;;;;;;;31.50;15.10;;;;;;;7.64;67.79;101170.55;106025;1258;62731;-86
2023/11/22 14:25:25;;;;;;;24.10;12.30;;;;;;;7.61;68.23;101169.52;106241;1257;61236;-86
2023/11/22 14:28:02;;;;;;;26.10;13.70;;;;;;;7.59;68.63;101174.00;106041;1260;74504;-86
2023/11/22 14:30:36;;;;;;;41.10;17.70;;;;;;;7.64;68.22;101168.33;106452;1256;69101;-86
2023/11/22 14:33:06;;;;;;;41.70;19.10;;;;;;;7.76;67.33;101169.92;106108;1256;72418;-86
2023/11/22 14:35:42;;;;;;;29.60;14.70;;;;;;;7.75;67.25;101173.58;106219;1256;61337;-87
2023/11/22 14:38:13;;;;;;;31.40;17.00;;;;;;;7.79;67.10;101174.38;106199;1257;61391;-85
2023/11/22 14:40:49;;;;;;;28.70;15.20;;;;;;;7.84;66.76;101175.06;106548;1254;74603;-86
2023/11/22 14:43:19;;;;;;;30.70;14.80;;;;;;;7.88;66.48;101176.77;106171;1259;68404;-86
2023/11/22 14:45:47;;;;;;;25.20;12.80;;;;;;;7.81;66.98;101174.46;106193;1259;72619;-86
2023/11/22 14:48:15;;;;;;;26.00;13.60;;;;;;;7.65;67.80;101176.94;106157;1257;62815;-86
2023/11/22 14:50:46;;;;;;;31.40;16.00;;;;;;;7.55;68.49;101185.83;106225;1254;61795;-86
2023/11/22 14:53:19;;;;;;;30.60;16.10;;;;;;;7.44;69.32;101192.77;106850;1255;77271;-85
2023/11/22 14:55:50;;;;;;;29.60;15.40;;;;;;;7.34;70.47;101187.09;106115;1256;71055;-88
2023/11/22 14:58:21;;;;;;;34.20;17.90;;;;;;;7.39;70.43;101191.71;106299;1254;74087;-86
2023/11/22 15:00:54;;;;;;;34.10;17.00;;;;;;;7.40;70.44;101194.61;106250;1256;61350;-87
2023/11/22 15:06:17;;;;;;;36.20;19.10;;;;;;;7.37;70.53;101191.27;106429;1254;76128;-87
2023/11/22 15:08:45;;;;;;;36.80;17.50;;;;;;;7.38;71.07;101194.48;106354;1256;71298;-86
2023/11/22 15:11:15;;;;;;;36.40;18.10;;;;;;;7.49;70.43;101197.18;106126;1256;75278;-86
2023/11/22 15:13:43;;;;;;;33.30;16.80;;;;;;;7.63;69.54;101198.78;106187;1259;61343;-86
2023/11/22 15:16:16;;;;;;;30.20;15.90;;;;;;;7.60;69.78;101200.23;106216;1256;61110;-86
2023/11/22 15:18:48;;;;;;;33.90;16.50;;;;;;;7.57;69.46;101198.11;106357;1255;75712;-86
2023/11/22 15:21:20;;;;;;;32.10;15.70;;;;;;;7.51;69.67;101197.45;106101;1254;68541;-85
2023/11/22 15:23:52;;;;;;;35.60;17.40;;;;;;;7.42;70.24;101198.46;106236;1256;74668;-84
2023/11/22 15:26:26;;;;;;;31.90;15.10;;;;;;;7.36;70.40;101197.17;106083;1254;61414;-86
2023/11/22 15:28:59;;;;;;;32.10;15.60;;;;;;;7.33;70.15;101205.71;106300;1259;61948;-83
2023/11/22 15:31:31;;;;;;;33.00;17.20;;;;;;;7.31;70.60;101208.23;106502;1259;75650;-85
2023/11/22 15:34:03;;;;;;;28.50;15.00;;;;;;;7.35;70.38;101218.85;106236;1254;70676;-86
2023/11/22 15:36:36;;;;;;;32.90;14.70;;;;;;;7.37;69.96;101222.86;106296;1254;73362;-84
2023/11/22 15:39:14;;;;;;;;;;;;;;;7.35;70.10;101222.66;106268;1256;62799;-87
2023/11/22 15:41:48;;;;;;;32.00;15.60;;;;;;;7.26;70.57;101227.25;106418;1259;61244;-84
2023/11/22 15:44:19;;;;;;;28.60;14.70;;;;;;;7.13;71.72;101232.98;106385;1259;76329;-85
2023/11/22 15:46:51;;;;;;;36.70;16.10;;;;;;;7.13;71.88;101232.02;106099;1256;71035;-86
2023/11/22 15:49:23;;;;;;;30.40;14.90;;;;;;;7.26;71.66;101239.39;106064;1260;73638;-85
2023/11/22 15:51:56;;;;;;;30.30;14.00;;;;;;;7.36;70.98;101242.41;106238;1261;61285;-86
2023/11/22 15:54:28;;;;;;;39.00;18.30;;;;;;;7.37;70.74;101248.05;106196;1257;60195;-85
2023/11/22 15:57:00;;;;;;;38.50;19.10;;;;;;;7.30;70.23;101250.52;106293;1256;75643;-85
2023/11/22 15:59:33;;;;;;;32.70;16.80;;;;;;;7.28;70.25;101250.40;106105;1257;69026;-85
2023/11/22 16:02:06;;;;;;;35.90;15.50;;;;;;;7.27;70.13;101251.15;106471;1254;73742;-85
2023/11/22 16:04:38;;;;;;;26.40;13.90;;;;;;;7.21;70.73;101253.84;106102;1256;61376;-84
2023/11/22 16:07:11;;;;;;;31.10;15.30;;;;;;;7.19;70.82;101261.80;106093;1256;61335;-85
2023/11/22 16:09:43;;;;;;;41.70;17.30;;;;;;;6.97;71.69;101265.84;106183;1255;75990;-86
2023/11/22 16:12:18;;;;;;;30.00;14.00;;;;;;;6.93;71.58;101271.02;106297;1254;69446;-85
2023/11/22 16:14:53;;;;;;;36.20;14.70;;;;;;;6.87;71.67;101272.77;106219;1256;71464;-84
2023/11/22 16:17:27;;;;;;;31.20;12.70;;;;;;;6.75;71.81;101272.71;106091;1257;61254;-84
2023/11/22 16:20:00;;;;;;;38.10;16.30;;;;;;;6.61;72.37;101270.11;106094;1256;62279;-84
2023/11/22 16:22:33;;;;;;;29.60;13.90;;;;;;;6.55;72.81;101271.61;106681;1257;76608;-84
2023/11/22 16:25:07;;;;;;;28.70;13.30;;;;;;;6.62;73.07;101278.58;106117;1256;68489;-84
2023/11/22 16:27:41;;;;;;;33.30;15.20;;;;;;;6.56;73.28;101279.67;106011;1259;73768;-84
2023/11/22 16:30:13;;;;;;;34.10;17.20;;;;;;;6.64;73.31;101283.02;106032;1256;61251;-85
2023/11/22 16:32:46;;;;;;;28.70;13.60;;;;;;;6.63;73.25;101285.11;106269;1256;61165;-85
2023/11/22 16:35:18;;;;;;;28.30;13.10;;;;;;;6.61;73.59;101289.13;106077;1259;74628;-85
2023/11/22 16:37:50;;;;;;;26.80;13.10;;;;;;;6.62;73.03;101292.73;106143;1259;70155;-85
2023/11/22 16:40:18;;;;;;;29.00;14.10;;;;;;;6.68;72.60;101291.23;106041;1256;74744;-85
2023/11/22 16:42:46;;;;;;;25.60;12.60;;;;;;;6.67;72.62;101298.09;106000;1257;63508;-86
2023/11/22 16:45:13;;;;;;;23.50;11.20;;;;;;;6.63;73.09;101296.26;106387;1257;61296;-86
2023/11/22 16:47:42;;;;;;;24.80;11.90;;;;;;;6.67;72.86;101298.85;106026;1255;73865;-85
2023/11/22 16:50:11;;;;;;;23.90;10.80;;;;;;;6.63;72.38;101306.34;106078;1260;68814;-85
2023/11/22 16:52:43;;;;;;;19.10;9.40;;;;;;;6.65;71.60;101311.45;106083;1256;74646;-86
2023/11/22 16:55:12;;;;;;;20.00;9.00;;;;;;;6.57;71.31;101310.38;106310;1255;61343;-85
2023/11/22 16:57:40;;;;;;;24.30;11.00;;;;;;;6.62;70.71;101307.39;106393;1256;61450;-86
2023/11/22 17:00:17;;;;;;;27.60;10.70;;;;;;;6.60;70.45;101311.23;106370;1255;76605;-86
2023/11/22 17:02:49;;;;;;;22.30;11.40;;;;;;;6.55;70.50;101311.68;106613;1256;70116;-86
2023/11/22 17:05:19;;;;;;;23.00;9.90;;;;;;;6.45;69.89;101311.10;106597;1260;73336;-85
2023/11/22 21:07:39;;;;;;;11.40;4.60;;;;;;;4.34;52.83;101477.55;106169;1255;61308;-85
2023/11/22 21:10:34;;;;;;;10.70;4.90;;;;;;;4.44;52.46;101471.64;109096;1254;59998;-85
2023/11/22 21:13:14;;;;;;;10.10;4.70;;;;;;;4.35;52.11;101482.50;107989;1255;73403;-86
2023/11/22 21:15:54;;;;;;;10.50;4.80;;;;;;;4.44;51.63;101484.96;106325;1256;67401;-86
2023/11/22 21:18:36;;;;;;;10.60;4.90;;;;;;;4.46;50.94;101493.54;106067;1261;71540;-85
2023/11/22 21:21:18;;;;;;;6.30;3.70;;;;;;;4.37;50.26;101502.23;106056;1255;61455;-86
2023/11/22 21:23:58;;;;;;;7.80;3.60;;;;;;;4.35;50.00;101496.02;106060;1255;59308;-86
2023/11/22 21:26:38;;;;;;;6.80;3.50;;;;;;;4.26;50.27;101488.36;106202;1257;73398;-86
2023/11/22 21:29:19;;;;;;;6.00;3.70;;;;;;;4.20;49.71;101487.04;106637;1255;70980;-86
2023/11/22 21:31:59;;;;;;;10.10;4.20;;;;;;;4.04;50.64;101495.98;106101;1255;72441;-85
2023/11/22 21:34:40;;;;;;;9.00;4.50;;;;;;;4.01;49.63;101487.70;106195;1256;61456;-86
2023/11/22 21:37:23;;;;;;;11.80;4.80;;;;;;;4.00;49.15;101486.54;106014;1255;265122;-87
2023/11/22 21:40:10;;;;;;;9.30;3.70;;;;;;;3.99;48.83;101489.90;106463;1256;73470;-86
2023/11/22 21:42:51;;;;;;;8.20;4.00;;;;;;;3.96;48.81;101489.23;106381;1259;67104;-86
2023/11/22 21:45:31;;;;;;;6.90;4.00;;;;;;;3.88;48.40;101491.23;106164;1256;71423;-86
2023/11/22 21:48:11;;;;;;;7.60;3.50;;;;;;;3.87;48.53;101492.81;106289;1260;61708;-86
2023/11/22 21:50:51;;;;;;;7.70;3.90;;;;;;;3.87;48.66;101496.98;106261;1255;61225;-86
2023/11/22 21:53:31;;;;;;;7.00;4.10;;;;;;;3.87;48.47;101491.54;106169;1261;74719;-86
2023/11/22 21:56:11;;;;;;;7.10;3.80;;;;;;;3.81;47.91;101491.91;106334;1255;68591;-85
2023/11/22 21:58:51;;;;;;;8.50;3.90;;;;;;;3.74;47.83;101488.44;106124;1259;71846;-86
2023/11/22 22:01:31;;;;;;;15.50;5.10;;;;;;;3.74;48.28;101491.29;106364;1259;61278;-86
2023/11/22 22:04:19;;;;;;;11.00;4.30;;;;;;;3.72;48.49;101490.38;106131;1255;61274;-85
2023/11/22 22:06:59;;;;;;;7.40;3.80;;;;;;;3.71;48.92;101488.17;106173;1261;73442;-86
2023/11/22 22:09:39;;;;;;;15.40;6.70;;;;;;;3.65;48.82;101495.75;106382;1254;67495;-85
2023/11/22 22:12:19;;;;;;;10.50;4.90;;;;;;;3.59;48.51;101491.80;106234;1259;71721;-85
2023/11/22 22:14:59;;;;;;;8.60;4.40;;;;;;;3.54;48.63;101494.50;106163;1256;61206;-85
2023/11/22 22:17:41;;;;;;;12.60;5.20;;;;;;;3.42;48.53;101494.38;106868;1256;61156;-85
2023/11/22 22:20:25;;;;;;;7.40;4.30;;;;;;;3.33;47.88;101492.23;106295;1258;74285;-85
2023/11/22 22:23:05;;;;;;;7.00;3.40;;;;;;;3.31;47.96;101495.15;106107;1261;67104;-85
2023/11/22 22:25:47;;;;;;;9.70;3.90;;;;;;;3.38;48.02;101486.45;106406;1254;72726;-86
2023/11/22 22:28:28;;;;;;;6.50;4.10;;;;;;;3.41;47.98;101483.10;106321;1260;62559;-85
2023/11/22 22:31:08;;;;;;;6.00;3.80;;;;;;;3.39;47.96;101488.51;106251;1259;61122;-85
2023/11/22 22:33:48;;;;;;;10.10;3.50;;;;;;;3.37;48.18;101487.46;106139;1258;74635;-85
2023/11/22 22:36:28;;;;;;;8.30;4.00;;;;;;;3.41;48.07;101488.58;106421;1254;68393;-85
2023/11/22 22:39:09;;;;;;;5.70;3.40;;;;;;;3.44;48.50;101489.96;106650;1257;72034;-85
2023/11/22 22:41:50;;;;;;;7.80;3.70;;;;;;;3.45;48.67;101495.02;106333;1259;61290;-85
2023/11/22 22:44:30;;;;;;;6.80;3.70;;;;;;;3.58;48.59;101496.58;106217;1260;61461;-85
2023/11/22 22:47:10;;;;;;;7.20;4.10;;;;;;;3.71;47.89;101497.95;106205;1259;74730;-85
2023/11/22 22:49:52;;;;;;;8.10;4.30;;;;;;;3.60;48.00;101498.66;106442;1259;67259;-85
2023/11/22 22:52:32;;;;;;;6.90;3.70;;;;;;;3.51;48.34;101506.35;106194;1261;72731;-86
2023/11/22 22:55:13;;;;;;;7.20;3.50;;;;;;;3.42;48.34;101508.41;106261;1254;61282;-84
2023/11/22 22:57:53;;;;;;;6.10;3.40;;;;;;;3.40;47.66;101513.40;106083;1261;61241;-87
2023/11/22 23:00:39;;;;;;;5.40;3.00;;;;;;;3.30;48.04;101511.14;106178;1261;73406;-85
2023/11/22 23:03:22;;;;;;;7.50;3.80;;;;;;;3.32;48.09;101503.01;106370;1261;68617;-85
2023/11/22 23:06:03;;;;;;;6.50;3.90;;;;;;;3.33;48.18;101501.05;106296;1260;72762;-84
2023/11/22 23:08:44;;;;;;;9.40;3.70;;;;;;;3.31;48.01;101501.27;106529;1257;61310;-85
2023/11/22 23:11:25;;;;;;;6.10;3.10;;;;;;;3.31;48.25;101509.05;106219;1256;61335;-84
2023/11/22 23:14:08;;;;;;;7.00;4.30;;;;;;;3.30;48.38;101504.65;106250;1260;74684;-85
2023/11/22 23:16:49;;;;;;;8.90;4.30;;;;;;;3.31;48.48;101502.55;106161;1261;67594;-85
2023/11/22 23:19:29;;;;;;;7.20;3.70;;;;;;;3.35;48.42;101489.59;106405;1255;72647;-85
2023/11/22 23:22:09;;;;;;;7.20;3.80;;;;;;;3.41;48.40;101484.80;106178;1260;61266;-85
2023/11/22 23:24:49;;;;;;;6.70;3.80;;;;;;;3.45;48.32;101480.65;106202;1260;61338;-84
2023/11/22 23:27:30;;;;;;;6.00;3.10;;;;;;;3.53;48.63;101477.12;106233;1257;73419;-85
2023/11/22 23:30:17;;;;;;;6.00;3.60;;;;;;;3.57;48.44;101477.58;106116;1260;68367;-85